sensor_id;sensor_type;location;lat;lon;timestamp;P1;durP1;ratioP1;P2;durP2;ratioP2
45314;SDS011;31051;51.540;5.852;2023-04-25T00:11:42;10.2;;;4.4;;
45314;SDS011;31051;51.540;5.852;2023-04-25T00:24:41;9.8;;;4.5;;
45314;SDS011;31051;51.540;5.852;2023-04-25T00:37:40;10.2;;;4.5;;
45314;SDS011;31051;51.540;5.852;2023-04-25T00:50:39;10.5;;;4.3;;
45314;SDS011;31051;51.540;5.852;2023-04-25T01:03:39;10.0;;;4.4;;
45314;SDS011;31051;51.540;5.852;2023-04-25T01:16:38;10.4;;;4.6;;
45314;SDS011;31051;51.540;5.852;2023-04-25T01:29:37;10.7;;;4.5;;
45314;SDS011;31051;51.540;5.852;2023-04-25T01:42:36;12.7;;;4.6;;
45314;SDS011;31051;51.540;5.852;2023-04-25T01:55:36;10.7;;;4.5;;
45314;SDS011;31051;51.540;5.852;2023-04-25T02:08:35;12.3;;;4.8;;
45314;SDS011;31051;51.540;5.852;2023-04-25T02:21:34;11.8;;;4.8;;
45314;SDS011;31051;51.540;5.852;2023-04-25T02:34:33;12.3;;;4.7;;
45314;SDS011;31051;51.540;5.852;2023-04-25T02:47:32;12.3;;;4.9;;
45314;SDS011;31051;51.540;5.852;2023-04-25T03:00:32;12.9;;;5.0;;
45314;SDS011;31051;51.540;5.852;2023-04-25T03:13:31;11.3;;;4.8;;
45314;SDS011;31051;51.540;5.852;2023-04-25T03:26:30;13.4;;;5.4;;
45314;SDS011;31051;51.540;5.852;2023-04-25T03:39:29;14.4;;;5.8;;
45314;SDS011;31051;51.540;5.852;2023-04-25T03:52:29;11.8;;;5.4;;
45314;SDS011;31051;51.540;5.852;2023-04-25T04:05:28;13.1;;;5.8;;
45314;SDS011;31051;51.540;5.852;2023-04-25T04:18:27;12.2;;;5.5;;
45314;SDS011;31051;51.540;5.852;2023-04-25T04:31:26;13.1;;;5.8;;
45314;SDS011;31051;51.540;5.852;2023-04-25T04:44:25;11.1;;;5.2;;
45314;SDS011;31051;51.540;5.852;2023-04-25T04:57:25;13.8;;;6.0;;
45314;SDS011;31051;51.540;5.852;2023-04-25T05:10:24;15.1;;;6.0;;
45314;SDS011;31051;51.540;5.852;2023-04-25T05:23:23;14.5;;;6.0;;
45314;SDS011;31051;51.540;5.852;2023-04-25T05:36:22;13.8;;;5.6;;
45314;SDS011;31051;51.540;5.852;2023-04-25T05:49:21;13.3;;;5.2;;
45314;SDS011;31051;51.540;5.852;2023-04-25T06:02:21;12.5;;;4.8;;
45314;SDS011;31051;51.540;5.852;2023-04-25T06:15:20;11.1;;;4.8;;
45314;SDS011;31051;51.540;5.852;2023-04-25T06:28:19;10.5;;;3.9;;
45314;SDS011;31051;51.540;5.852;2023-04-25T06:41:18;10.2;;;3.8;;
45314;SDS011;31051;51.540;5.852;2023-04-25T06:54:18;10.4;;;3.6;;
45314;SDS011;31051;51.540;5.852;2023-04-25T07:07:17;8.1;;;3.4;;
45314;SDS011;31051;51.540;5.852;2023-04-25T07:20:16;7.6;;;3.1;;
45314;SDS011;31051;51.540;5.852;2023-04-25T07:33:15;8.4;;;2.8;;
45314;SDS011;31051;51.540;5.852;2023-04-25T07:46:15;8.7;;;3.0;;
45314;SDS011;31051;51.540;5.852;2023-04-25T07:59:14;8.6;;;2.9;;
45314;SDS011;31051;51.540;5.852;2023-04-25T08:12:13;7.4;;;2.5;;
45314;SDS011;31051;51.540;5.852;2023-04-25T08:25:12;7.8;;;2.4;;
45314;SDS011;31051;51.540;5.852;2023-04-25T08:38:12;8.1;;;2.5;;
45314;SDS011;31051;51.540;5.852;2023-04-25T08:51:11;6.2;;;2.0;;
45314;SDS011;31051;51.540;5.852;2023-04-25T09:04:10;6.8;;;1.8;;
45314;SDS011;31051;51.540;5.852;2023-04-25T09:17:09;5.7;;;1.9;;
45314;SDS011;31051;51.540;5.852;2023-04-25T09:30:09;5.9;;;1.8;;
45314;SDS011;31051;51.540;5.852;2023-04-25T09:43:08;6.1;;;1.9;;
45314;SDS011;31051;51.540;5.852;2023-04-25T09:56:07;5.7;;;2.0;;
45314;SDS011;31051;51.540;5.852;2023-04-25T10:09:07;4.0;;;1.5;;
45314;SDS011;31051;51.540;5.852;2023-04-25T10:22:06;3.6;;;1.5;;
45314;SDS011;31051;51.540;5.852;2023-04-25T10:35:05;3.2;;;1.5;;
45314;SDS011;31051;51.540;5.852;2023-04-25T10:48:04;3.7;;;1.4;;
45314;SDS011;31051;51.540;5.852;2023-04-25T11:01:04;3.9;;;1.6;;
45314;SDS011;31051;51.540;5.852;2023-04-25T11:14:03;4.1;;;1.7;;
45314;SDS011;31051;51.540;5.852;2023-04-25T11:27:02;5.9;;;1.9;;
45314;SDS011;31051;51.540;5.852;2023-04-25T11:40:01;4.3;;;1.5;;
45314;SDS011;31051;51.540;5.852;2023-04-25T11:53:01;5.6;;;1.6;;
45314;SDS011;31051;51.540;5.852;2023-04-25T12:06:00;5.0;;;1.8;;
45314;SDS011;31051;51.540;5.852;2023-04-25T12:18:59;5.4;;;1.8;;
45314;SDS011;31051;51.540;5.852;2023-04-25T12:31:58;4.2;;;1.6;;
45314;SDS011;31051;51.540;5.852;2023-04-25T12:44:58;4.8;;;1.7;;
45314;SDS011;31051;51.540;5.852;2023-04-25T12:57:57;2.3;;;1.0;;
45314;SDS011;31051;51.540;5.852;2023-04-25T13:10:56;2.5;;;1.0;;
45314;SDS011;31051;51.540;5.852;2023-04-25T13:36:55;4.0;;;1.6;;
45314;SDS011;31051;51.540;5.852;2023-04-25T13:49:54;5.5;;;1.6;;
45314;SDS011;31051;51.540;5.852;2023-04-25T14:02:53;4.3;;;1.7;;
45314;SDS011;31051;51.540;5.852;2023-04-25T14:15:53;3.7;;;1.3;;
45314;SDS011;31051;51.540;5.852;2023-04-25T14:28:52;4.8;;;1.7;;
45314;SDS011;31051;51.540;5.852;2023-04-25T14:41:51;4.2;;;1.6;;
45314;SDS011;31051;51.540;5.852;2023-04-25T14:54:51;3.2;;;1.3;;
45314;SDS011;31051;51.540;5.852;2023-04-25T15:07:50;3.3;;;1.3;;
45314;SDS011;31051;51.540;5.852;2023-04-25T15:20:49;5.1;;;1.4;;
45314;SDS011;31051;51.540;5.852;2023-04-25T15:33:48;4.0;;;1.5;;
45314;SDS011;31051;51.540;5.852;2023-04-25T15:46:48;5.2;;;1.7;;
45314;SDS011;31051;51.540;5.852;2023-04-25T15:59:47;5.2;;;1.7;;
45314;SDS011;31051;51.540;5.852;2023-04-25T16:12:46;3.9;;;1.5;;
45314;SDS011;31051;51.540;5.852;2023-04-25T16:25:46;4.4;;;1.7;;
45314;SDS011;31051;51.540;5.852;2023-04-25T16:38:45;3.8;;;1.6;;
45314;SDS011;31051;51.540;5.852;2023-04-25T16:51:44;5.4;;;1.8;;
45314;SDS011;31051;51.540;5.852;2023-04-25T17:04:43;5.0;;;1.5;;
45314;SDS011;31051;51.540;5.852;2023-04-25T17:17:43;4.4;;;1.5;;
45314;SDS011;31051;51.540;5.852;2023-04-25T17:30:42;4.4;;;1.6;;
45314;SDS011;31051;51.540;5.852;2023-04-25T17:43:41;5.1;;;1.6;;
45314;SDS011;31051;51.540;5.852;2023-04-25T17:56:41;4.9;;;1.8;;
45314;SDS011;31051;51.540;5.852;2023-04-25T18:22:39;5.2;;;1.7;;
45314;SDS011;31051;51.540;5.852;2023-04-25T18:35:38;5.5;;;1.9;;
45314;SDS011;31051;51.540;5.852;2023-04-25T18:48:38;5.7;;;1.9;;
45314;SDS011;31051;51.540;5.852;2023-04-25T19:01:37;4.7;;;1.8;;
45314;SDS011;31051;51.540;5.852;2023-04-25T19:14:36;5.6;;;1.8;;
45314;SDS011;31051;51.540;5.852;2023-04-25T19:27:35;5.1;;;1.8;;
45314;SDS011;31051;51.540;5.852;2023-04-25T19:40:35;4.6;;;1.8;;
45314;SDS011;31051;51.540;5.852;2023-04-25T19:53:34;4.2;;;1.8;;
45314;SDS011;31051;51.540;5.852;2023-04-25T20:06:33;4.0;;;1.7;;
45314;SDS011;31051;51.540;5.852;2023-04-25T20:19:32;3.8;;;1.8;;
45314;SDS011;31051;51.540;5.852;2023-04-25T20:32:31;6.1;;;3.9;;
45314;SDS011;31051;51.540;5.852;2023-04-25T20:45:31;5.5;;;2.5;;
45314;SDS011;31051;51.540;5.852;2023-04-25T20:58:30;7.9;;;3.0;;
45314;SDS011;31051;51.540;5.852;2023-04-25T21:11:29;5.3;;;2.7;;
45314;SDS011;31051;51.540;5.852;2023-04-25T21:24:28;5.4;;;2.8;;
45314;SDS011;31051;51.540;5.852;2023-04-25T21:37:28;6.2;;;2.9;;
45314;SDS011;31051;51.540;5.852;2023-04-25T21:50:27;6.2;;;3.2;;
45314;SDS011;31051;51.540;5.852;2023-04-25T22:03:26;6.6;;;3.2;;
45314;SDS011;31051;51.540;5.852;2023-04-25T22:16:25;6.1;;;3.3;;
45314;SDS011;31051;51.540;5.852;2023-04-25T22:29:24;7.2;;;3.8;;
45314;SDS011;31051;51.540;5.852;2023-04-25T22:42:24;7.1;;;3.8;;
45314;SDS011;31051;51.540;5.852;2023-04-25T22:55:23;7.6;;;4.0;;
45314;SDS011;31051;51.540;5.852;2023-04-25T23:08:22;6.4;;;3.9;;
45314;SDS011;31051;51.540;5.852;2023-04-25T23:21:21;7.6;;;4.5;;
45314;SDS011;31051;51.540;5.852;2023-04-25T23:34:20;7.0;;;4.4;;
45314;SDS011;31051;51.540;5.852;2023-04-25T23:47:19;7.6;;;4.9;;
